CLYO2: Little River nr Cloudy 5ENE

Data processed at Sat Mar 10 2018 23:08


All information presented herein is the property of the government of the United States of America and may be revised or deleted at any time without prior notice.
Dissemination of this information without the expressed written consent of the Public Affairs Office, Tulsa District U.S. Army Corps of Engineers is strictly prohibited.
These data are gathered electronically and, as presented, have not undergone any form of quality control. These data are not guaranteed to be valid or correct.
Go to home page.
Go to station list.

Downstream station:


Previous Day
Next Day
Current Day
    
SHEF ID:       CLYO2     Little River nr Cloudy 5ENE
STATION TYPE:  

               PRECIP     STAGE  RIV-FLOW   VOLTAGE  BAT-LOAD
                   in        ft       cfs      volt      volt
              Ccp-Rev   Ccp-Rev   Ccp-Rev   Ccp-Rev   Ccp-Rev
(US/Central)
03/08 00:00      0.00      4.98       580     12.60     12.60
03/08 01:00      0.00      4.96       570     12.60     12.54
03/08 02:00      0.00      4.95       564     12.54     12.54
03/08 03:00      0.00      4.94       559     12.54     12.48
03/08 04:00      0.00      4.93       554     12.48     12.42
03/08 05:00      0.00      4.94       559     12.42     12.42
03/08 06:00      0.00      4.93       554     12.42     12.42
03/08 07:00      0.00      4.93       554     12.42     12.36
03/08 08:00      0.00      4.93       554     12.89     12.36
03/08 09:00      0.00      4.92       548     13.65     12.95
03/08 10:00      0.00      4.92       548     13.77     13.59
03/08 11:00      0.00      4.92       548     13.65     13.59
03/08 12:00      0.00      4.91       543     13.71     13.48
03/08 13:00      0.00      4.91       543     13.53     13.53
03/08 14:00      0.00      4.89       533     13.83     13.48
03/08 15:00      0.00      4.89       533     13.53     13.48
03/08 16:00      0.00      4.87       522     14.06     13.30
03/08 17:00      0.00      4.87       522     13.71     13.30
03/08 18:00      0.00      4.86       517     13.12     13.30
03/08 19:00      0.00      4.87       522     12.89     13.00
03/08 20:00      0.00      4.85       511     12.77     12.83
03/08 21:00      0.00      4.86       517     12.71     12.71
03/08 22:00      0.00      4.85       511     12.65     12.65
03/08 23:00      0.00      4.85       511     12.65     12.60